sensor_id;sensor_type;location;lat;lon;timestamp;P1;durP1;ratioP1;P2;durP2;ratioP2
66179;SDS011;52986;44.028;20.466;2023-06-14T00:01:38;10.57;;;3.95;;
66179;SDS011;52986;44.028;20.466;2023-06-14T00:04:04;9.00;;;3.85;;
66179;SDS011;52986;44.028;20.466;2023-06-14T00:06:33;11.38;;;4.00;;
66179;SDS011;52986;44.028;20.466;2023-06-14T00:08:59;11.05;;;4.30;;
66179;SDS011;52986;44.028;20.466;2023-06-14T00:11:24;11.73;;;4.40;;
66179;SDS011;52986;44.028;20.466;2023-06-14T00:13:51;9.25;;;3.92;;
66179;SDS011;52986;44.028;20.466;2023-06-14T00:16:17;10.48;;;4.15;;
66179;SDS011;52986;44.028;20.466;2023-06-14T00:18:44;12.23;;;4.32;;
66179;SDS011;52986;44.028;20.466;2023-06-14T00:21:10;11.63;;;4.43;;
66179;SDS011;52986;44.028;20.466;2023-06-14T00:23:35;10.13;;;3.80;;
66179;SDS011;52986;44.028;20.466;2023-06-14T00:26:00;10.65;;;4.13;;
66179;SDS011;52986;44.028;20.466;2023-06-14T00:28:26;11.95;;;4.25;;
66179;SDS011;52986;44.028;20.466;2023-06-14T00:30:51;11.67;;;3.90;;
66179;SDS011;52986;44.028;20.466;2023-06-14T00:33:16;11.00;;;3.73;;
66179;SDS011;52986;44.028;20.466;2023-06-14T00:35:42;11.50;;;4.17;;
66179;SDS011;52986;44.028;20.466;2023-06-14T00:38:07;13.50;;;3.60;;
66179;SDS011;52986;44.028;20.466;2023-06-14T00:40:32;8.88;;;3.70;;
66179;SDS011;52986;44.028;20.466;2023-06-14T00:42:59;9.73;;;3.97;;
66179;SDS011;52986;44.028;20.466;2023-06-14T00:45:25;9.85;;;4.00;;
66179;SDS011;52986;44.028;20.466;2023-06-14T00:47:50;9.38;;;3.90;;
66179;SDS011;52986;44.028;20.466;2023-06-14T00:50:20;11.73;;;3.75;;
66179;SDS011;52986;44.028;20.466;2023-06-14T00:52:46;9.73;;;3.78;;
66179;SDS011;52986;44.028;20.466;2023-06-14T00:55:12;10.88;;;3.88;;
66179;SDS011;52986;44.028;20.466;2023-06-14T00:57:37;9.65;;;3.78;;
66179;SDS011;52986;44.028;20.466;2023-06-14T01:00:05;13.60;;;3.80;;
66179;SDS011;52986;44.028;20.466;2023-06-14T01:02:34;9.43;;;3.83;;
66179;SDS011;52986;44.028;20.466;2023-06-14T01:05:01;9.48;;;3.63;;
66179;SDS011;52986;44.028;20.466;2023-06-14T01:12:59;12.82;;;4.05;;
66179;SDS011;52986;44.028;20.466;2023-06-14T01:15:32;10.70;;;4.05;;
66179;SDS011;52986;44.028;20.466;2023-06-14T01:17:59;9.18;;;3.83;;
66179;SDS011;52986;44.028;20.466;2023-06-14T01:20:29;8.98;;;3.75;;
66179;SDS011;52986;44.028;20.466;2023-06-14T01:22:56;9.48;;;3.80;;
66179;SDS011;52986;44.028;20.466;2023-06-14T01:25:22;11.57;;;3.78;;
66179;SDS011;52986;44.028;20.466;2023-06-14T01:27:48;10.93;;;3.70;;
66179;SDS011;52986;44.028;20.466;2023-06-14T01:30:16;9.45;;;4.10;;
66179;SDS011;52986;44.028;20.466;2023-06-14T01:32:42;11.25;;;3.90;;
66179;SDS011;52986;44.028;20.466;2023-06-14T01:35:08;9.30;;;3.67;;
66179;SDS011;52986;44.028;20.466;2023-06-14T01:37:33;9.10;;;4.20;;
66179;SDS011;52986;44.028;20.466;2023-06-14T01:40:00;9.48;;;4.10;;
66179;SDS011;52986;44.028;20.466;2023-06-14T01:42:28;11.07;;;3.90;;
66179;SDS011;52986;44.028;20.466;2023-06-14T01:44:55;9.45;;;4.00;;
66179;SDS011;52986;44.028;20.466;2023-06-14T01:47:21;12.18;;;4.45;;
66179;SDS011;52986;44.028;20.466;2023-06-14T01:49:47;10.95;;;4.13;;
66179;SDS011;52986;44.028;20.466;2023-06-14T01:52:12;11.10;;;4.22;;
66179;SDS011;52986;44.028;20.466;2023-06-14T01:54:38;11.45;;;3.88;;
66179;SDS011;52986;44.028;20.466;2023-06-14T01:57:07;10.45;;;3.78;;
66179;SDS011;52986;44.028;20.466;2023-06-14T01:59:33;10.45;;;3.35;;
66179;SDS011;52986;44.028;20.466;2023-06-14T02:02:00;7.97;;;3.40;;
66179;SDS011;52986;44.028;20.466;2023-06-14T02:04:27;11.63;;;3.78;;
66179;SDS011;52986;44.028;20.466;2023-06-14T02:06:53;8.13;;;3.40;;
66179;SDS011;52986;44.028;20.466;2023-06-14T02:09:18;9.52;;;3.30;;
66179;SDS011;52986;44.028;20.466;2023-06-14T02:11:43;8.18;;;3.47;;
66179;SDS011;52986;44.028;20.466;2023-06-14T02:14:09;9.00;;;3.30;;
66179;SDS011;52986;44.028;20.466;2023-06-14T02:16:36;10.98;;;4.03;;
66179;SDS011;52986;44.028;20.466;2023-06-14T02:19:04;9.70;;;3.63;;
66179;SDS011;52986;44.028;20.466;2023-06-14T02:21:29;9.88;;;3.60;;
66179;SDS011;52986;44.028;20.466;2023-06-14T02:23:55;9.82;;;3.63;;
66179;SDS011;52986;44.028;20.466;2023-06-14T02:26:20;12.73;;;3.88;;
66179;SDS011;52986;44.028;20.466;2023-06-14T02:28:47;10.77;;;3.55;;
66179;SDS011;52986;44.028;20.466;2023-06-14T02:31:13;9.85;;;3.80;;
66179;SDS011;52986;44.028;20.466;2023-06-14T02:33:38;8.40;;;3.60;;
66179;SDS011;52986;44.028;20.466;2023-06-14T02:36:04;10.65;;;3.63;;
66179;SDS011;52986;44.028;20.466;2023-06-14T02:38:30;9.90;;;3.60;;
66179;SDS011;52986;44.028;20.466;2023-06-14T02:40:55;12.55;;;3.85;;
66179;SDS011;52986;44.028;20.466;2023-06-14T02:43:21;10.40;;;3.65;;
66179;SDS011;52986;44.028;20.466;2023-06-14T02:45:46;9.05;;;3.67;;
66179;SDS011;52986;44.028;20.466;2023-06-14T02:48:11;12.15;;;3.60;;
66179;SDS011;52986;44.028;20.466;2023-06-14T02:50:37;10.35;;;3.50;;
66179;SDS011;52986;44.028;20.466;2023-06-14T02:53:02;8.55;;;3.50;;
66179;SDS011;52986;44.028;20.466;2023-06-14T02:55:28;9.93;;;3.60;;
66179;SDS011;52986;44.028;20.466;2023-06-14T02:57:53;10.65;;;3.70;;
66179;SDS011;52986;44.028;20.466;2023-06-14T03:00:19;10.48;;;4.07;;
66179;SDS011;52986;44.028;20.466;2023-06-14T03:02:45;10.25;;;3.63;;
66179;SDS011;52986;44.028;20.466;2023-06-14T03:05:11;9.63;;;3.85;;
66179;SDS011;52986;44.028;20.466;2023-06-14T03:07:36;9.45;;;3.55;;
66179;SDS011;52986;44.028;20.466;2023-06-14T03:10:07;10.57;;;3.67;;
66179;SDS011;52986;44.028;20.466;2023-06-14T03:12:34;9.45;;;3.53;;
66179;SDS011;52986;44.028;20.466;2023-06-14T03:15:00;12.60;;;3.72;;
66179;SDS011;52986;44.028;20.466;2023-06-14T03:17:26;9.25;;;3.70;;
66179;SDS011;52986;44.028;20.466;2023-06-14T03:19:54;8.82;;;3.70;;
66179;SDS011;52986;44.028;20.466;2023-06-14T03:22:20;9.02;;;3.42;;
66179;SDS011;52986;44.028;20.466;2023-06-14T03:24:47;9.15;;;3.42;;
66179;SDS011;52986;44.028;20.466;2023-06-14T03:27:13;8.90;;;3.60;;
66179;SDS011;52986;44.028;20.466;2023-06-14T03:29:39;9.35;;;4.10;;
66179;SDS011;52986;44.028;20.466;2023-06-14T03:32:05;9.30;;;3.65;;
66179;SDS011;52986;44.028;20.466;2023-06-14T03:34:31;13.23;;;3.60;;
66179;SDS011;52986;44.028;20.466;2023-06-14T03:36:56;12.80;;;3.72;;
66179;SDS011;52986;44.028;20.466;2023-06-14T03:39:21;12.63;;;3.60;;
66179;SDS011;52986;44.028;20.466;2023-06-14T03:41:47;9.18;;;3.40;;
66179;SDS011;52986;44.028;20.466;2023-06-14T03:44:16;10.88;;;3.50;;
66179;SDS011;52986;44.028;20.466;2023-06-14T03:46:43;9.70;;;3.50;;
66179;SDS011;52986;44.028;20.466;2023-06-14T03:49:09;11.40;;;3.92;;
66179;SDS011;52986;44.028;20.466;2023-06-14T03:51:35;9.75;;;3.45;;
66179;SDS011;52986;44.028;20.466;2023-06-14T03:54:01;9.00;;;3.70;;
66179;SDS011;52986;44.028;20.466;2023-06-14T03:56:26;11.73;;;3.85;;
66179;SDS011;52986;44.028;20.466;2023-06-14T03:58:52;9.75;;;4.43;;
66179;SDS011;52986;44.028;20.466;2023-06-14T04:01:17;11.73;;;5.00;;
66179;SDS011;52986;44.028;20.466;2023-06-14T04:03:43;13.02;;;4.70;;
66179;SDS011;52986;44.028;20.466;2023-06-14T04:06:08;12.27;;;4.60;;
66179;SDS011;52986;44.028;20.466;2023-06-14T04:08:34;13.07;;;4.70;;
66179;SDS011;52986;44.028;20.466;2023-06-14T04:11:00;11.52;;;4.95;;
66179;SDS011;52986;44.028;20.466;2023-06-14T04:13:25;16.90;;;4.68;;
66179;SDS011;52986;44.028;20.466;2023-06-14T04:15:51;10.65;;;4.32;;
66179;SDS011;52986;44.028;20.466;2023-06-14T04:18:16;9.90;;;4.10;;
66179;SDS011;52986;44.028;20.466;2023-06-14T04:20:42;12.20;;;4.00;;
66179;SDS011;52986;44.028;20.466;2023-06-14T04:23:15;11.70;;;4.60;;
66179;SDS011;52986;44.028;20.466;2023-06-14T04:25:43;12.10;;;4.20;;
66179;SDS011;52986;44.028;20.466;2023-06-14T04:28:13;10.30;;;4.03;;
66179;SDS011;52986;44.028;20.466;2023-06-14T04:30:43;9.80;;;3.95;;
66179;SDS011;52986;44.028;20.466;2023-06-14T04:33:09;9.52;;;4.10;;
66179;SDS011;52986;44.028;20.466;2023-06-14T04:35:36;19.88;;;4.55;;
66179;SDS011;52986;44.028;20.466;2023-06-14T04:38:02;16.02;;;6.10;;
66179;SDS011;52986;44.028;20.466;2023-06-14T04:40:34;18.33;;;4.65;;
66179;SDS011;52986;44.028;20.466;2023-06-14T04:43:01;11.00;;;4.55;;
66179;SDS011;52986;44.028;20.466;2023-06-14T04:45:29;22.00;;;5.10;;
66179;SDS011;52986;44.028;20.466;2023-06-14T04:47:58;10.65;;;4.03;;
66179;SDS011;52986;44.028;20.466;2023-06-14T04:50:24;11.63;;;4.32;;
66179;SDS011;52986;44.028;20.466;2023-06-14T04:52:50;16.60;;;4.35;;
66179;SDS011;52986;44.028;20.466;2023-06-14T04:55:16;12.50;;;3.92;;
66179;SDS011;52986;44.028;20.466;2023-06-14T04:57:42;12.57;;;4.30;;
66179;SDS011;52986;44.028;20.466;2023-06-14T05:00:07;14.23;;;4.50;;
66179;SDS011;52986;44.028;20.466;2023-06-14T05:02:36;11.07;;;4.30;;
66179;SDS011;52986;44.028;20.466;2023-06-14T05:05:02;11.30;;;4.05;;
66179;SDS011;52986;44.028;20.466;2023-06-14T05:07:29;12.52;;;4.47;;
66179;SDS011;52986;44.028;20.466;2023-06-14T05:09:55;11.70;;;4.32;;
66179;SDS011;52986;44.028;20.466;2023-06-14T05:12:20;23.60;;;5.13;;
66179;SDS011;52986;44.028;20.466;2023-06-14T05:14:46;17.20;;;4.60;;
66179;SDS011;52986;44.028;20.466;2023-06-14T05:17:11;16.60;;;4.55;;
66179;SDS011;52986;44.028;20.466;2023-06-14T05:19:36;11.13;;;4.78;;
66179;SDS011;52986;44.028;20.466;2023-06-14T05:22:02;11.50;;;4.50;;
66179;SDS011;52986;44.028;20.466;2023-06-14T05:24:28;14.57;;;4.63;;
66179;SDS011;52986;44.028;20.466;2023-06-14T05:26:55;11.48;;;4.25;;
66179;SDS011;52986;44.028;20.466;2023-06-14T05:29:20;16.55;;;4.80;;
66179;SDS011;52986;44.028;20.466;2023-06-14T05:31:46;12.27;;;4.13;;
66179;SDS011;52986;44.028;20.466;2023-06-14T05:34:11;30.73;;;4.87;;
66179;SDS011;52986;44.028;20.466;2023-06-14T05:36:36;10.63;;;4.32;;
66179;SDS011;52986;44.028;20.466;2023-06-14T05:39:02;13.65;;;4.50;;
66179;SDS011;52986;44.028;20.466;2023-06-14T05:41:28;14.77;;;4.53;;
66179;SDS011;52986;44.028;20.466;2023-06-14T05:43:54;12.00;;;4.82;;
66179;SDS011;52986;44.028;20.466;2023-06-14T05:46:21;11.98;;;4.25;;
66179;SDS011;52986;44.028;20.466;2023-06-14T05:48:49;14.63;;;4.80;;
66179;SDS011;52986;44.028;20.466;2023-06-14T05:51:15;15.35;;;4.70;;
66179;SDS011;52986;44.028;20.466;2023-06-14T05:53:43;18.95;;;5.60;;
66179;SDS011;52986;44.028;20.466;2023-06-14T05:56:10;16.92;;;5.20;;
66179;SDS011;52986;44.028;20.466;2023-06-14T05:58:35;15.75;;;5.00;;
66179;SDS011;52986;44.028;20.466;2023-06-14T06:01:00;11.65;;;4.95;;
66179;SDS011;52986;44.028;20.466;2023-06-14T06:03:26;21.33;;;4.88;;
66179;SDS011;52986;44.028;20.466;2023-06-14T06:05:54;17.33;;;4.90;;
66179;SDS011;52986;44.028;20.466;2023-06-14T06:08:20;16.85;;;5.15;;
66179;SDS011;52986;44.028;20.466;2023-06-14T06:10:45;15.82;;;4.75;;
66179;SDS011;52986;44.028;20.466;2023-06-14T06:13:11;14.95;;;5.53;;
66179;SDS011;52986;44.028;20.466;2023-06-14T06:15:36;17.13;;;5.30;;
66179;SDS011;52986;44.028;20.466;2023-06-14T06:18:02;19.75;;;5.80;;
66179;SDS011;52986;44.028;20.466;2023-06-14T06:20:27;15.75;;;5.80;;
66179;SDS011;52986;44.028;20.466;2023-06-14T06:22:56;14.25;;;5.60;;
66179;SDS011;52986;44.028;20.466;2023-06-14T06:25:22;15.77;;;5.50;;
66179;SDS011;52986;44.028;20.466;2023-06-14T06:27:47;11.88;;;5.20;;
66179;SDS011;52986;44.028;20.466;2023-06-14T06:30:13;16.38;;;5.18;;
66179;SDS011;52986;44.028;20.466;2023-06-14T06:32:38;12.20;;;4.18;;
66179;SDS011;52986;44.028;20.466;2023-06-14T06:35:04;12.27;;;4.07;;
66179;SDS011;52986;44.028;20.466;2023-06-14T06:37:31;12.38;;;4.03;;
66179;SDS011;52986;44.028;20.466;2023-06-14T06:39:56;14.80;;;3.72;;
66179;SDS011;52986;44.028;20.466;2023-06-14T06:42:22;11.10;;;3.30;;
66179;SDS011;52986;44.028;20.466;2023-06-14T06:44:47;9.10;;;3.13;;
66179;SDS011;52986;44.028;20.466;2023-06-14T06:47:13;11.10;;;3.50;;
66179;SDS011;52986;44.028;20.466;2023-06-14T06:49:38;9.70;;;3.05;;
66179;SDS011;52986;44.028;20.466;2023-06-14T06:52:04;8.15;;;3.00;;
66179;SDS011;52986;44.028;20.466;2023-06-14T06:54:31;7.32;;;3.20;;
66179;SDS011;52986;44.028;20.466;2023-06-14T06:56:57;8.48;;;2.97;;
66179;SDS011;52986;44.028;20.466;2023-06-14T06:59:23;11.98;;;2.55;;
66179;SDS011;52986;44.028;20.466;2023-06-14T07:01:48;6.68;;;2.05;;
66179;SDS011;52986;44.028;20.466;2023-06-14T07:04:14;5.68;;;2.00;;
66179;SDS011;52986;44.028;20.466;2023-06-14T07:06:39;9.75;;;2.40;;
66179;SDS011;52986;44.028;20.466;2023-06-14T07:09:05;5.50;;;2.10;;
66179;SDS011;52986;44.028;20.466;2023-06-14T07:11:33;3.78;;;1.70;;
66179;SDS011;52986;44.028;20.466;2023-06-14T07:13:58;3.42;;;1.60;;
66179;SDS011;52986;44.028;20.466;2023-06-14T07:16:24;5.50;;;1.73;;
66179;SDS011;52986;44.028;20.466;2023-06-14T07:18:50;8.80;;;1.90;;
66179;SDS011;52986;44.028;20.466;2023-06-14T07:21:16;5.05;;;1.83;;
66179;SDS011;52986;44.028;20.466;2023-06-14T07:23:41;5.22;;;2.05;;
66179;SDS011;52986;44.028;20.466;2023-06-14T07:26:07;4.50;;;2.00;;
66179;SDS011;52986;44.028;20.466;2023-06-14T07:28:32;5.20;;;1.90;;
66179;SDS011;52986;44.028;20.466;2023-06-14T07:30:57;4.15;;;1.90;;
66179;SDS011;52986;44.028;20.466;2023-06-14T07:33:23;3.83;;;1.80;;
66179;SDS011;52986;44.028;20.466;2023-06-14T07:35:48;9.75;;;1.88;;
66179;SDS011;52986;44.028;20.466;2023-06-14T07:38:14;4.95;;;1.80;;
66179;SDS011;52986;44.028;20.466;2023-06-14T07:40:40;3.53;;;1.70;;
66179;SDS011;52986;44.028;20.466;2023-06-14T07:43:05;3.33;;;1.77;;
66179;SDS011;52986;44.028;20.466;2023-06-14T07:45:30;4.10;;;1.80;;
66179;SDS011;52986;44.028;20.466;2023-06-14T07:47:56;3.83;;;1.70;;
66179;SDS011;52986;44.028;20.466;2023-06-14T07:50:21;4.95;;;1.60;;
66179;SDS011;52986;44.028;20.466;2023-06-14T07:52:47;4.80;;;1.85;;
66179;SDS011;52986;44.028;20.466;2023-06-14T07:55:13;7.57;;;2.60;;
66179;SDS011;52986;44.028;20.466;2023-06-14T07:57:40;8.40;;;2.95;;
66179;SDS011;52986;44.028;20.466;2023-06-14T08:00:05;16.40;;;3.25;;
66179;SDS011;52986;44.028;20.466;2023-06-14T08:02:32;8.15;;;2.80;;
66179;SDS011;52986;44.028;20.466;2023-06-14T08:04:57;6.75;;;2.72;;
66179;SDS011;52986;44.028;20.466;2023-06-14T08:07:23;8.95;;;3.33;;
66179;SDS011;52986;44.028;20.466;2023-06-14T08:09:49;9.48;;;2.85;;
66179;SDS011;52986;44.028;20.466;2023-06-14T08:12:14;7.75;;;2.65;;
66179;SDS011;52986;44.028;20.466;2023-06-14T08:14:41;5.70;;;2.65;;
66179;SDS011;52986;44.028;20.466;2023-06-14T08:17:07;6.25;;;2.50;;
66179;SDS011;52986;44.028;20.466;2023-06-14T08:19:33;6.07;;;2.45;;
66179;SDS011;52986;44.028;20.466;2023-06-14T08:21:58;6.97;;;2.20;;
66179;SDS011;52986;44.028;20.466;2023-06-14T08:24:25;8.32;;;2.50;;
66179;SDS011;52986;44.028;20.466;2023-06-14T08:26:52;8.18;;;2.50;;
66179;SDS011;52986;44.028;20.466;2023-06-14T08:29:18;14.80;;;2.97;;
66179;SDS011;52986;44.028;20.466;2023-06-14T08:31:44;10.35;;;2.60;;
66179;SDS011;52986;44.028;20.466;2023-06-14T08:34:10;5.38;;;1.95;;
66179;SDS011;52986;44.028;20.466;2023-06-14T08:36:36;6.03;;;2.03;;
66179;SDS011;52986;44.028;20.466;2023-06-14T08:39:01;6.50;;;2.30;;
66179;SDS011;52986;44.028;20.466;2023-06-14T08:41:27;7.18;;;2.58;;
66179;SDS011;52986;44.028;20.466;2023-06-14T08:43:54;7.03;;;2.50;;
66179;SDS011;52986;44.028;20.466;2023-06-14T08:46:20;5.75;;;2.00;;
66179;SDS011;52986;44.028;20.466;2023-06-14T08:48:50;14.10;;;2.38;;
66179;SDS011;52986;44.028;20.466;2023-06-14T08:51:20;4.45;;;2.05;;
66179;SDS011;52986;44.028;20.466;2023-06-14T08:53:52;5.80;;;2.03;;
66179;SDS011;52986;44.028;20.466;2023-06-14T08:56:19;4.80;;;1.80;;
66179;SDS011;52986;44.028;20.466;2023-06-14T08:58:45;4.57;;;1.80;;
66179;SDS011;52986;44.028;20.466;2023-06-14T09:01:13;7.97;;;1.88;;
66179;SDS011;52986;44.028;20.466;2023-06-14T09:03:40;2.92;;;1.75;;
66179;SDS011;52986;44.028;20.466;2023-06-14T09:06:06;7.05;;;1.70;;
66179;SDS011;52986;44.028;20.466;2023-06-14T09:08:33;5.85;;;1.90;;
66179;SDS011;52986;44.028;20.466;2023-06-14T09:11:01;4.53;;;1.67;;
66179;SDS011;52986;44.028;20.466;2023-06-14T09:13:27;12.57;;;2.17;;
66179;SDS011;52986;44.028;20.466;2023-06-14T09:15:52;4.18;;;1.80;;
66179;SDS011;52986;44.028;20.466;2023-06-14T09:18:19;3.25;;;1.70;;
66179;SDS011;52986;44.028;20.466;2023-06-14T09:20:47;4.20;;;1.90;;
66179;SDS011;52986;44.028;20.466;2023-06-14T09:23:13;5.05;;;1.70;;
66179;SDS011;52986;44.028;20.466;2023-06-14T09:25:41;3.10;;;1.70;;
66179;SDS011;52986;44.028;20.466;2023-06-14T09:28:08;4.80;;;1.90;;
66179;SDS011;52986;44.028;20.466;2023-06-14T09:30:33;4.03;;;1.65;;
66179;SDS011;52986;44.028;20.466;2023-06-14T09:32:59;3.47;;;1.70;;
66179;SDS011;52986;44.028;20.466;2023-06-14T09:35:24;2.70;;;1.60;;
66179;SDS011;52986;44.028;20.466;2023-06-14T09:37:50;5.50;;;1.90;;
66179;SDS011;52986;44.028;20.466;2023-06-14T09:40:20;5.07;;;1.60;;
66179;SDS011;52986;44.028;20.466;2023-06-14T09:42:45;3.58;;;1.63;;
66179;SDS011;52986;44.028;20.466;2023-06-14T09:45:12;5.97;;;1.80;;
66179;SDS011;52986;44.028;20.466;2023-06-14T09:47:39;2.90;;;1.50;;
66179;SDS011;52986;44.028;20.466;2023-06-14T09:50:05;3.97;;;1.60;;
66179;SDS011;52986;44.028;20.466;2023-06-14T09:52:31;5.55;;;1.80;;
66179;SDS011;52986;44.028;20.466;2023-06-14T09:54:57;2.50;;;1.60;;
66179;SDS011;52986;44.028;20.466;2023-06-14T09:57:24;5.35;;;1.90;;
66179;SDS011;52986;44.028;20.466;2023-06-14T09:59:56;2.97;;;1.60;;
66179;SDS011;52986;44.028;20.466;2023-06-14T10:02:26;4.18;;;1.95;;
66179;SDS011;52986;44.028;20.466;2023-06-14T10:05:07;3.63;;;1.90;;
66179;SDS011;52986;44.028;20.466;2023-06-14T10:07:39;4.43;;;1.98;;
66179;SDS011;52986;44.028;20.466;2023-06-14T10:10:09;4.38;;;1.83;;
66179;SDS011;52986;44.028;20.466;2023-06-14T10:12:35;4.28;;;1.77;;
66179;SDS011;52986;44.028;20.466;2023-06-14T10:15:01;4.93;;;2.13;;
66179;SDS011;52986;44.028;20.466;2023-06-14T10:17:47;4.60;;;2.00;;
66179;SDS011;52986;44.028;20.466;2023-06-14T10:23:21;4.03;;;1.90;;
66179;SDS011;52986;44.028;20.466;2023-06-14T10:25:53;4.10;;;1.70;;
66179;SDS011;52986;44.028;20.466;2023-06-14T10:28:21;3.40;;;1.67;;
66179;SDS011;52986;44.028;20.466;2023-06-14T10:31:09;7.25;;;1.95;;
66179;SDS011;52986;44.028;20.466;2023-06-14T10:33:48;4.30;;;2.00;;
66179;SDS011;52986;44.028;20.466;2023-06-14T10:38:47;4.15;;;1.88;;
66179;SDS011;52986;44.028;20.466;2023-06-14T10:41:22;4.72;;;2.10;;
66179;SDS011;52986;44.028;20.466;2023-06-14T10:43:48;5.05;;;2.10;;
66179;SDS011;52986;44.028;20.466;2023-06-14T10:46:14;5.22;;;2.00;;
66179;SDS011;52986;44.028;20.466;2023-06-14T10:48:44;5.10;;;2.00;;
66179;SDS011;52986;44.028;20.466;2023-06-14T10:51:16;4.03;;;1.90;;
66179;SDS011;52986;44.028;20.466;2023-06-14T10:53:45;3.72;;;1.92;;
66179;SDS011;52986;44.028;20.466;2023-06-14T10:56:27;4.55;;;1.95;;
66179;SDS011;52986;44.028;20.466;2023-06-14T10:58:58;4.00;;;1.92;;
66179;SDS011;52986;44.028;20.466;2023-06-14T11:02:09;5.60;;;2.25;;
66179;SDS011;52986;44.028;20.466;2023-06-14T11:04:15;6.47;;;2.33;;
66179;SDS011;52986;44.028;20.466;2023-06-14T11:06:49;15.02;;;7.43;;
66179;SDS011;52986;44.028;20.466;2023-06-14T11:11:57;17.85;;;10.45;;
66179;SDS011;52986;44.028;20.466;2023-06-14T11:14:24;7.57;;;3.33;;
66179;SDS011;52986;44.028;20.466;2023-06-14T11:16:49;7.75;;;2.85;;
66179;SDS011;52986;44.028;20.466;2023-06-14T11:19:15;6.80;;;2.90;;
66179;SDS011;52986;44.028;20.466;2023-06-14T11:21:42;5.53;;;2.53;;
66179;SDS011;52986;44.028;20.466;2023-06-14T11:24:11;7.25;;;2.60;;
66179;SDS011;52986;44.028;20.466;2023-06-14T11:26:37;7.20;;;2.70;;
66179;SDS011;52986;44.028;20.466;2023-06-14T11:29:03;6.85;;;2.70;;
66179;SDS011;52986;44.028;20.466;2023-06-14T11:31:29;6.90;;;3.03;;
66179;SDS011;52986;44.028;20.466;2023-06-14T11:33:56;6.03;;;2.30;;
66179;SDS011;52986;44.028;20.466;2023-06-14T11:36:23;4.03;;;2.03;;
66179;SDS011;52986;44.028;20.466;2023-06-14T11:38:57;7.68;;;2.25;;
66179;SDS011;52986;44.028;20.466;2023-06-14T11:41:25;7.88;;;2.28;;
66179;SDS011;52986;44.028;20.466;2023-06-14T11:43:56;5.07;;;2.10;;
66179;SDS011;52986;44.028;20.466;2023-06-14T11:46:23;5.25;;;2.28;;
66179;SDS011;52986;44.028;20.466;2023-06-14T11:48:50;5.13;;;2.05;;
66179;SDS011;52986;44.028;20.466;2023-06-14T11:51:16;6.50;;;2.53;;
66179;SDS011;52986;44.028;20.466;2023-06-14T11:53:44;5.72;;;2.40;;
66179;SDS011;52986;44.028;20.466;2023-06-14T11:56:10;5.32;;;2.40;;
66179;SDS011;52986;44.028;20.466;2023-06-14T11:58:35;4.43;;;2.08;;
66179;SDS011;52986;44.028;20.466;2023-06-14T12:01:05;5.13;;;2.20;;
66179;SDS011;52986;44.028;20.466;2023-06-14T12:03:30;7.95;;;2.25;;
66179;SDS011;52986;44.028;20.466;2023-06-14T12:06:05;6.07;;;2.50;;
66179;SDS011;52986;44.028;20.466;2023-06-14T12:08:36;5.40;;;2.47;;
66179;SDS011;52986;44.028;20.466;2023-06-14T12:11:12;5.80;;;2.20;;
66179;SDS011;52986;44.028;20.466;2023-06-14T12:13:39;6.10;;;2.40;;
66179;SDS011;52986;44.028;20.466;2023-06-14T12:16:06;7.00;;;2.42;;
66179;SDS011;52986;44.028;20.466;2023-06-14T12:18:36;5.90;;;2.40;;
66179;SDS011;52986;44.028;20.466;2023-06-14T12:21:04;6.13;;;2.45;;
66179;SDS011;52986;44.028;20.466;2023-06-14T12:23:44;7.70;;;2.42;;
66179;SDS011;52986;44.028;20.466;2023-06-14T12:26:14;7.30;;;2.70;;
66179;SDS011;52986;44.028;20.466;2023-06-14T12:28:46;5.47;;;2.50;;
66179;SDS011;52986;44.028;20.466;2023-06-14T12:31:13;6.57;;;2.53;;
66179;SDS011;52986;44.028;20.466;2023-06-14T12:33:40;7.80;;;2.60;;
66179;SDS011;52986;44.028;20.466;2023-06-14T12:36:06;6.10;;;2.50;;
66179;SDS011;52986;44.028;20.466;2023-06-14T12:38:33;7.45;;;2.67;;
66179;SDS011;52986;44.028;20.466;2023-06-14T12:40:58;6.82;;;2.55;;
66179;SDS011;52986;44.028;20.466;2023-06-14T12:43:24;5.40;;;2.45;;
66179;SDS011;52986;44.028;20.466;2023-06-14T12:45:49;8.82;;;2.30;;
66179;SDS011;52986;44.028;20.466;2023-06-14T12:48:15;4.95;;;2.33;;
66179;SDS011;52986;44.028;20.466;2023-06-14T12:50:40;6.80;;;2.30;;
66179;SDS011;52986;44.028;20.466;2023-06-14T12:53:06;7.65;;;2.47;;
66179;SDS011;52986;44.028;20.466;2023-06-14T12:55:32;9.70;;;2.63;;
66179;SDS011;52986;44.028;20.466;2023-06-14T12:57:58;6.82;;;2.40;;
66179;SDS011;52986;44.028;20.466;2023-06-14T13:00:23;6.03;;;2.25;;
66179;SDS011;52986;44.028;20.466;2023-06-14T13:02:50;5.13;;;2.10;;
66179;SDS011;52986;44.028;20.466;2023-06-14T13:05:16;7.85;;;2.33;;
66179;SDS011;52986;44.028;20.466;2023-06-14T13:07:42;7.68;;;2.10;;
66179;SDS011;52986;44.028;20.466;2023-06-14T13:10:08;5.53;;;2.40;;
66179;SDS011;52986;44.028;20.466;2023-06-14T13:12:33;6.88;;;2.10;;
66179;SDS011;52986;44.028;20.466;2023-06-14T13:14:59;6.75;;;2.33;;
66179;SDS011;52986;44.028;20.466;2023-06-14T13:17:24;6.25;;;2.50;;
66179;SDS011;52986;44.028;20.466;2023-06-14T13:19:50;6.80;;;2.30;;
66179;SDS011;52986;44.028;20.466;2023-06-14T13:22:15;7.17;;;2.33;;
66179;SDS011;52986;44.028;20.466;2023-06-14T13:24:40;8.23;;;2.70;;
66179;SDS011;52986;44.028;20.466;2023-06-14T13:27:06;6.45;;;2.78;;
66179;SDS011;52986;44.028;20.466;2023-06-14T13:29:31;7.65;;;2.42;;
66179;SDS011;52986;44.028;20.466;2023-06-14T13:31:58;7.28;;;2.47;;
66179;SDS011;52986;44.028;20.466;2023-06-14T13:34:24;5.70;;;2.35;;
66179;SDS011;52986;44.028;20.466;2023-06-14T13:36:49;8.20;;;2.50;;
66179;SDS011;52986;44.028;20.466;2023-06-14T13:39:15;6.53;;;2.50;;
66179;SDS011;52986;44.028;20.466;2023-06-14T13:41:41;7.30;;;2.90;;
66179;SDS011;52986;44.028;20.466;2023-06-14T13:44:06;7.10;;;2.70;;
66179;SDS011;52986;44.028;20.466;2023-06-14T13:46:32;6.78;;;2.78;;
66179;SDS011;52986;44.028;20.466;2023-06-14T13:48:57;5.70;;;2.67;;
66179;SDS011;52986;44.028;20.466;2023-06-14T13:51:23;7.13;;;2.80;;
66179;SDS011;52986;44.028;20.466;2023-06-14T13:53:49;9.48;;;2.60;;
66179;SDS011;52986;44.028;20.466;2023-06-14T13:56:15;12.43;;;2.80;;
66179;SDS011;52986;44.028;20.466;2023-06-14T13:58:41;15.90;;;2.97;;
66179;SDS011;52986;44.028;20.466;2023-06-14T14:01:07;10.30;;;2.42;;
66179;SDS011;52986;44.028;20.466;2023-06-14T14:03:33;9.02;;;2.60;;
66179;SDS011;52986;44.028;20.466;2023-06-14T14:06:00;8.80;;;2.90;;
66179;SDS011;52986;44.028;20.466;2023-06-14T14:08:29;28.40;;;3.08;;
66179;SDS011;52986;44.028;20.466;2023-06-14T14:10:55;9.93;;;2.53;;
66179;SDS011;52986;44.028;20.466;2023-06-14T14:13:21;7.75;;;2.60;;
66179;SDS011;52986;44.028;20.466;2023-06-14T14:15:46;9.00;;;2.90;;
66179;SDS011;52986;44.028;20.466;2023-06-14T14:18:12;9.43;;;3.17;;
66179;SDS011;52986;44.028;20.466;2023-06-14T14:20:37;12.02;;;2.70;;
66179;SDS011;52986;44.028;20.466;2023-06-14T14:23:03;8.02;;;2.85;;
66179;SDS011;52986;44.028;20.466;2023-06-14T14:25:28;9.23;;;2.80;;
66179;SDS011;52986;44.028;20.466;2023-06-14T14:27:53;7.60;;;2.90;;
66179;SDS011;52986;44.028;20.466;2023-06-14T14:30:19;7.43;;;2.67;;
66179;SDS011;52986;44.028;20.466;2023-06-14T14:32:48;6.57;;;2.47;;
66179;SDS011;52986;44.028;20.466;2023-06-14T14:35:14;6.95;;;2.70;;
66179;SDS011;52986;44.028;20.466;2023-06-14T14:37:40;6.65;;;2.53;;
66179;SDS011;52986;44.028;20.466;2023-06-14T14:40:06;8.35;;;2.88;;
66179;SDS011;52986;44.028;20.466;2023-06-14T14:42:31;7.00;;;2.90;;